Time;durP1;ratioP1;P1;durP2;ratioP2;P2;SDS_P1;SDS_P2;PMS_P1;PMS_P2;Temp;Humidity;BMP_temperature;BMP_pressure;BME280_temperature;BME280_humidity;BME280_pressure;Samples;Min_cycle;Max_cycle;Signal;HPM_P1;HPM_P2
2021/10/18 00:03:47;;;;;;;14.30;7.37;;;;;;;4.13;62.60;99994.53;1786111;78;23169;-60
2021/10/18 00:06:14;;;;;;;10.65;7.00;;;;;;;4.09;62.52;99988.49;1749170;80;21511;-61
2021/10/18 00:08:43;;;;;;;12.55;6.95;;;;;;;4.10;62.56;99986.30;1762454;80;21627;-63
2021/10/18 00:11:10;;;;;;;13.93;7.03;;;;;;;4.04;62.77;99983.32;1767885;80;21570;-62
2021/10/18 00:13:36;;;;;;;11.38;6.62;;;;;;;4.08;62.85;99981.55;1774911;80;21506;-62
2021/10/18 00:16:05;;;;;;;14.10;7.50;;;;;;;4.05;62.79;99976.37;1761649;80;21548;-62
2021/10/18 00:18:31;;;;;;;12.77;6.50;;;;;;;4.09;62.57;99971.58;1768467;80;21473;-61
2021/10/18 00:20:59;;;;;;;14.65;7.12;;;;;;;4.10;62.65;99974.59;1769532;80;22116;-61
2021/10/18 00:23:25;;;;;;;12.13;7.42;;;;;;;4.04;62.87;99969.01;1774151;80;21079;-61
2021/10/18 00:25:53;;;;;;;14.60;7.45;;;;;;;4.05;62.77;99960.75;1761297;80;21498;-61
2021/10/18 00:28:21;;;;;;;12.63;7.08;;;;;;;4.03;62.87;99973.81;1759701;80;21065;-61
2021/10/18 00:30:48;;;;;;;10.93;6.37;;;;;;;3.98;63.05;99964.33;1763030;80;21550;-61
2021/10/18 00:33:15;;;;;;;;;;;;;;;3.90;63.56;99973.07;1755125;80;22092;-60
2021/10/18 00:35:42;;;;;;;12.45;7.40;;;;;;;3.94;63.42;99966.09;1734735;81;20427;-61
2021/10/18 00:38:09;;;;;;;15.70;7.03;;;;;;;3.85;63.69;99980.05;1713705;81;21099;-60
2021/10/18 00:40:37;;;;;;;12.88;7.47;;;;;;;3.83;63.65;99973.15;1715600;81;21073;-61
2021/10/18 00:43:04;;;;;;;12.25;7.12;;;;;;;3.85;63.57;99969.64;1712966;82;20993;-61
2021/10/18 00:45:31;;;;;;;14.07;7.83;;;;;;;3.85;63.61;99970.09;1700678;82;21763;-60
2021/10/18 00:47:58;;;;;;;12.43;6.90;;;;;;;3.84;63.73;99967.05;1702300;82;21613;-61
2021/10/18 00:50:25;;;;;;;11.53;7.47;;;;;;;3.81;63.83;99966.66;1709844;82;21640;-60
2021/10/18 00:52:52;;;;;;;12.70;7.35;;;;;;;3.90;63.66;99958.77;1701274;82;21510;-62
2021/10/18 00:55:18;;;;;;;13.85;7.80;;;;;;;3.96;63.41;99959.14;1683433;82;21632;-62
2021/10/18 00:57:46;;;;;;;14.18;7.58;;;;;;;3.93;63.48;99958.30;1683568;82;21886;-61
2021/10/18 01:00:13;;;;;;;12.03;7.42;;;;;;;3.87;63.75;99959.23;1710824;82;28691;-60
2021/10/18 01:02:40;;;;;;;13.03;6.95;;;;;;;3.85;63.79;99970.95;1700240;83;21550;-61
2021/10/18 01:05:07;;;;;;;15.45;7.50;;;;;;;3.84;63.83;99964.04;1735486;80;21517;-61
2021/10/18 01:07:34;;;;;;;14.15;7.87;;;;;;;3.85;63.56;99960.98;1747731;80;27119;-61
2021/10/18 01:10:01;;;;;;;18.10;8.10;;;;;;;3.78;63.90;99960.62;1751194;80;22080;-60
2021/10/18 01:12:28;;;;;;;14.17;7.37;;;;;;;3.78;63.89;99957.57;1756148;80;21531;-61
2021/10/18 01:14:54;;;;;;;14.30;7.75;;;;;;;3.73;64.10;99958.50;1756662;80;21471;-61
2021/10/18 01:17:21;;;;;;;10.20;7.50;;;;;;;3.74;64.25;99961.09;1738297;80;21547;-61
2021/10/18 01:19:49;;;;;;;10.82;7.45;;;;;;;3.72;64.25;99958.09;1758960;80;20947;-61
2021/10/18 01:22:16;;;;;;;11.75;7.05;;;;;;;3.69;64.35;99957.66;1746641;80;22147;-61
2021/10/18 01:24:42;;;;;;;14.07;7.55;;;;;;;3.66;64.34;99955.11;1751084;80;21524;-61
2021/10/18 01:27:09;;;;;;;10.43;7.42;;;;;;;3.62;64.57;99953.42;1740110;80;21566;-61
2021/10/18 01:29:36;;;;;;;11.50;6.65;;;;;;;3.63;64.58;99955.13;1757507;80;21471;-61
2021/10/18 01:32:05;;;;;;;14.95;7.62;;;;;;;3.72;64.44;99956.34;1755687;80;21570;-60
2021/10/18 01:34:32;;;;;;;13.28;6.87;;;;;;;3.75;64.28;99958.04;1758045;80;21581;-60
2021/10/18 01:37:01;;;;;;;13.05;7.53;;;;;;;3.74;64.33;99958.48;1748806;80;21597;-61
2021/10/18 01:39:28;;;;;;;15.05;7.85;;;;;;;3.77;64.21;99958.88;1756698;80;21664;-61
2021/10/18 01:41:55;;;;;;;9.80;6.60;;;;;;;3.78;64.42;99954.97;1752932;80;21509;-61
2021/10/18 01:44:22;;;;;;;12.95;7.55;;;;;;;3.80;64.52;99957.56;1752199;80;21534;-61
2021/10/18 01:46:48;;;;;;;13.00;7.22;;;;;;;3.78;64.69;99954.97;1742265;80;22126;-62
2021/10/18 01:49:14;;;;;;;15.68;7.20;;;;;;;3.83;64.92;99963.59;1761918;80;21509;-60
2021/10/18 01:51:42;;;;;;;10.50;7.58;;;;;;;3.84;65.18;99964.45;1738892;80;21571;-60
2021/10/18 01:54:08;;;;;;;12.28;7.20;;;;;;;3.93;64.99;99957.00;1744738;80;21527;-61
2021/10/18 01:56:35;;;;;;;13.50;6.85;;;;;;;3.99;65.16;99954.33;1712280;82;21578;-61
2021/10/18 01:59:03;;;;;;;9.43;5.83;;;;;;;4.07;65.01;99960.33;1754370;80;21960;-61
2021/10/18 02:01:30;;;;;;;13.20;7.15;;;;;;;4.31;64.51;99952.64;1748244;80;21566;-61
2021/10/18 02:03:56;;;;;;;9.63;6.23;;;;;;;4.50;63.84;99953.27;1709360;81;21479;-61
2021/10/18 02:06:23;;;;;;;13.72;6.45;;;;;;;4.57;63.50;99946.25;1709424;81;21519;-61
2021/10/18 02:08:50;;;;;;;13.00;6.20;;;;;;;4.61;63.36;99952.69;1698772;83;21649;-61
2021/10/18 02:11:17;;;;;;;8.67;6.00;;;;;;;4.63;63.13;99948.77;1703771;83;21511;-61
2021/10/18 02:13:44;;;;;;;12.23;6.40;;;;;;;4.70;62.92;99947.80;1715710;81;22192;-61
2021/10/18 02:16:10;;;;;;;11.80;6.35;;;;;;;4.77;62.74;99951.20;1710791;81;21562;-61
2021/10/18 02:18:37;;;;;;;12.25;6.92;;;;;;;4.77;62.70;99945.54;1713698;83;21589;-61
2021/10/18 02:21:03;;;;;;;13.18;6.70;;;;;;;4.80;62.67;99949.84;1704274;83;21530;-61
2021/10/18 02:23:30;;;;;;;15.40;6.90;;;;;;;4.82;62.56;99948.95;1712755;81;21789;-61
2021/10/18 02:25:57;;;;;;;10.60;6.43;;;;;;;4.85;62.52;99950.64;1706369;83;21507;-61
2021/10/18 02:28:24;;;;;;;10.85;6.20;;;;;;;4.86;62.36;99953.67;1714487;82;21561;-61
2021/10/18 02:30:50;;;;;;;12.35;6.35;;;;;;;4.87;62.28;99954.93;1713486;83;21569;-62
2021/10/18 02:33:17;;;;;;;10.80;6.47;;;;;;;4.89;62.27;99945.80;1708445;83;21525;-62
2021/10/18 02:35:43;;;;;;;10.32;6.22;;;;;;;4.86;62.44;99948.02;1705831;83;21764;-62
2021/10/18 02:38:10;;;;;;;10.78;6.33;;;;;;;4.88;62.43;99948.85;1705042;83;21580;-61
2021/10/18 02:40:37;;;;;;;10.15;5.97;;;;;;;4.89;62.48;99944.49;1701744;83;21156;-62
2021/10/18 02:43:03;;;;;;;12.30;6.53;;;;;;;4.92;62.35;99939.70;1705505;83;21527;-60
2021/10/18 02:45:30;;;;;;;9.05;5.67;;;;;;;4.93;62.27;99944.01;1712191;83;21021;-61
2021/10/18 02:47:57;;;;;;;12.05;6.42;;;;;;;4.97;62.19;99936.56;1700653;83;21487;-59
2021/10/18 02:50:23;;;;;;;10.80;5.70;;;;;;;4.95;62.19;99934.42;1710250;83;21503;-59
2021/10/18 02:52:50;;;;;;;9.38;5.92;;;;;;;4.98;62.13;99936.98;1702710;82;21603;-60
2021/10/18 02:55:16;;;;;;;12.65;6.33;;;;;;;5.02;61.88;99938.66;1703382;83;21531;-59
2021/10/18 02:57:43;;;;;;;12.07;5.80;;;;;;;5.03;61.93;99932.13;1703666;81;21545;-60
2021/10/18 03:00:11;;;;;;;10.07;5.53;;;;;;;5.09;61.48;99936.83;1707926;83;21569;-60
2021/10/18 03:02:37;;;;;;;9.90;5.75;;;;;;;5.09;61.48;99936.83;1702953;81;26897;-60
2021/10/18 03:05:06;;;;;;;7.53;5.78;;;;;;;5.13;61.57;99938.50;1746440;80;21475;-61
2021/10/18 03:07:33;;;;;;;11.43;5.90;;;;;;;5.14;61.50;99933.27;1758435;80;21673;-61
2021/10/18 03:10:00;;;;;;;11.30;6.65;;;;;;;5.17;61.60;99929.29;1759788;80;21563;-61
2021/10/18 03:12:26;;;;;;;13.10;5.42;;;;;;;5.19;61.43;99927.97;1738234;80;22050;-61
2021/10/18 03:14:54;;;;;;;11.38;5.97;;;;;;;5.22;61.33;99922.72;1749749;80;21620;-61
2021/10/18 03:17:21;;;;;;;13.40;6.13;;;;;;;5.23;61.27;99919.20;1742196;80;21014;-61
2021/10/18 03:19:47;;;;;;;8.30;5.72;;;;;;;5.23;61.27;99919.20;1743312;80;21947;-61
2021/10/18 03:22:14;;;;;;;11.08;5.90;;;;;;;5.23;61.30;99917.45;1745787;80;21053;-61
2021/10/18 03:24:41;;;;;;;10.03;5.53;;;;;;;5.24;61.20;99917.03;1746466;80;22006;-62
2021/10/18 03:27:08;;;;;;;9.73;5.50;;;;;;;5.27;61.19;99922.17;1750251;80;21507;-61
2021/10/18 03:29:34;;;;;;;10.48;5.35;;;;;;;5.28;61.14;99917.84;1749339;80;21862;-61
2021/10/18 03:32:01;;;;;;;8.88;5.67;;;;;;;5.26;61.26;99923.08;1745992;80;21507;-61
2021/10/18 03:34:27;;;;;;;10.28;6.22;;;;;;;5.31;61.08;99915.16;1746738;80;21588;-61
2021/10/18 03:36:54;;;;;;;6.97;5.30;;;;;;;5.33;61.10;99918.60;1754093;80;21754;-60
2021/10/18 03:39:21;;;;;;;9.15;5.28;;;;;;;5.33;61.12;99918.19;1746313;80;21550;-62
2021/10/18 03:41:48;;;;;;;9.73;5.62;;;;;;;5.32;61.14;99915.14;1736634;80;21136;-62
2021/10/18 03:44:15;;;;;;;11.83;5.42;;;;;;;5.34;61.24;99918.58;1744604;80;21476;-61
2021/10/18 03:46:41;;;;;;;9.18;5.70;;;;;;;5.34;61.04;99910.77;1752642;80;21516;-61
2021/10/18 03:49:08;;;;;;;12.00;5.67;;;;;;;5.34;61.12;99908.16;1752184;80;21848;-60
2021/10/18 03:51:34;;;;;;;9.98;5.40;;;;;;;5.34;60.86;99900.33;1740154;80;21665;-61
2021/10/18 03:54:02;;;;;;;15.72;5.67;;;;;;;5.37;61.02;99905.50;1741795;80;21454;-61
2021/10/18 03:56:28;;;;;;;9.38;5.72;;;;;;;5.39;61.10;99911.55;1752234;80;20967;-61
2021/10/18 03:58:55;;;;;;;8.40;5.53;;;;;;;5.41;60.99;99907.16;1743803;80;21563;-61
2021/10/18 04:01:22;;;;;;;10.05;5.30;;;;;;;5.40;60.99;99902.83;1742981;80;21752;-61
2021/10/18 04:03:49;;;;;;;9.13;5.77;;;;;;;5.41;61.11;99900.64;1753639;80;21468;-61
2021/10/18 04:06:15;;;;;;;10.53;5.67;;;;;;;5.42;61.17;99898.89;1750704;80;21510;-61
2021/10/18 04:08:42;;;;;;;10.98;5.80;;;;;;;5.40;61.13;99900.22;1741408;80;21622;-61
2021/10/18 04:11:10;;;;;;;16.07;5.62;;;;;;;5.40;61.17;99908.04;1745699;80;25594;-61
2021/10/18 04:13:37;;;;;;;8.28;5.12;;;;;;;5.40;61.28;99906.73;1737736;80;22005;-61
2021/10/18 04:16:04;;;;;;;14.60;6.30;;;;;;;5.41;61.18;99908.92;1746767;80;21570;-60
2021/10/18 04:18:33;;;;;;;9.80;5.62;;;;;;;5.40;61.21;99901.52;1745495;80;20990;-61
2021/10/18 04:21:02;;;;;;;7.60;5.20;;;;;;;5.41;61.17;99899.34;1748972;80;21507;-61
2021/10/18 04:23:29;;;;;;;10.40;5.35;;;;;;;5.40;61.07;99894.15;1754803;80;21586;-60
2021/10/18 04:25:55;;;;;;;9.05;6.03;;;;;;;5.42;60.97;99901.50;1732386;80;21871;-61
2021/10/18 04:28:24;;;;;;;11.28;5.47;;;;;;;5.39;61.06;99901.58;1748115;80;21486;-61
2021/10/18 04:30:50;;;;;;;10.00;5.72;;;;;;;5.37;61.07;99909.83;1754731;80;21527;-62
2021/10/18 04:33:17;;;;;;;14.30;5.70;;;;;;;5.38;61.15;99907.66;1738940;80;21465;-62
2021/10/18 04:35:43;;;;;;;11.05;4.85;;;;;;;5.37;61.20;99910.72;1753711;80;21651;-60
2021/10/18 04:38:10;;;;;;;9.45;5.62;;;;;;;5.36;61.20;99915.50;1748467;80;21841;-60
2021/10/18 04:40:36;;;;;;;11.15;5.97;;;;;;;5.37;61.31;99916.35;1740532;80;21148;-61
2021/10/18 04:43:03;;;;;;;9.70;5.50;;;;;;;5.33;61.58;99923.40;1757243;80;21506;-61
2021/10/18 04:45:30;;;;;;;9.65;5.15;;;;;;;5.30;61.68;99918.67;1746887;80;21524;-61
2021/10/18 04:47:57;;;;;;;8.63;5.62;;;;;;;5.28;61.84;99918.70;1752848;80;21452;-60
2021/10/18 04:50:24;;;;;;;8.85;5.25;;;;;;;5.32;61.76;99915.59;1735885;80;21702;-61
2021/10/18 04:52:51;;;;;;;7.45;5.35;;;;;;;5.29;61.85;99916.48;1751757;80;21419;-60
2021/10/18 04:55:17;;;;;;;12.15;5.87;;;;;;;5.33;61.83;99924.70;1745964;80;20978;-60
2021/10/18 04:57:50;;;;;;;13.25;6.22;;;;;;;5.35;61.94;99930.75;1751521;80;21614;-60
2021/10/18 05:00:17;;;;;;;9.40;5.50;;;;;;;5.37;61.78;99930.70;1750451;80;21527;-61
2021/10/18 05:02:45;;;;;;;13.75;6.22;;;;;;;5.39;61.80;99928.95;1756734;80;22161;-61
2021/10/18 05:05:11;;;;;;;8.45;5.78;;;;;;;5.42;61.84;99928.88;1749366;80;22445;-61
2021/10/18 05:07:38;;;;;;;9.75;6.17;;;;;;;5.44;61.93;99928.41;1753589;80;21578;-61
2021/10/18 05:10:31;;;;;;;11.18;6.08;;;;;;;5.44;61.85;99922.77;1738750;80;21473;-61
2021/10/18 05:12:58;;;;;;;10.80;5.60;;;;;;;5.45;61.92;99931.00;1709454;82;21657;-61
2021/10/18 05:15:25;;;;;;;11.15;5.87;;;;;;;5.51;61.72;99932.64;1720427;82;21593;-61
2021/10/18 05:17:51;;;;;;;9.80;6.45;;;;;;;5.53;61.83;99939.98;1675065;83;21113;-61
2021/10/18 05:20:18;;;;;;;11.57;5.80;;;;;;;5.56;61.94;99939.95;1711562;82;21443;-61
2021/10/18 05:22:45;;;;;;;10.72;6.12;;;;;;;5.60;61.84;99948.58;1673723;84;21656;-60
2021/10/18 05:25:11;;;;;;;9.40;5.60;;;;;;;5.59;61.79;99944.23;1723842;82;21684;-61
2021/10/18 05:27:38;;;;;;;9.68;5.50;;;;;;;5.62;61.86;99946.80;1726322;82;21786;-62
2021/10/18 05:30:07;;;;;;;12.13;6.40;;;;;;;5.63;61.83;99950.69;1720244;82;21495;-61
2021/10/18 05:32:34;;;;;;;18.42;6.28;;;;;;;5.68;61.70;99955.81;1712852;82;21522;-61
2021/10/18 05:35:01;;;;;;;10.20;6.33;;;;;;;5.70;61.60;99959.26;1705551;82;21003;-60
2021/10/18 05:37:28;;;;;;;8.80;6.22;;;;;;;5.72;61.84;99960.54;1715502;81;21471;-60
2021/10/18 05:39:55;;;;;;;8.70;5.33;;;;;;;5.71;61.93;99960.11;1738564;81;21915;-61
2021/10/18 05:42:22;;;;;;;11.70;5.60;;;;;;;5.77;61.68;99965.23;1738698;80;21415;-61
2021/10/18 05:44:48;;;;;;;12.65;6.65;;;;;;;5.78;61.75;99965.22;1721732;82;21478;-61
2021/10/18 05:47:15;;;;;;;13.03;6.00;;;;;;;5.82;61.70;99963.38;1743062;81;21577;-63
2021/10/18 05:49:42;;;;;;;10.85;6.78;;;;;;;5.87;61.75;99969.84;1738467;81;21560;-60
2021/10/18 05:52:09;;;;;;;14.83;6.97;;;;;;;5.90;61.56;99965.88;1736934;81;21946;-60
2021/10/18 05:54:36;;;;;;;10.53;6.35;;;;;;;5.91;61.49;99962.36;1733311;81;21574;-61
2021/10/18 05:57:03;;;;;;;16.23;7.10;;;;;;;5.94;61.71;99971.45;1729219;81;21104;-61
2021/10/18 05:59:30;;;;;;;8.73;6.80;;;;;;;5.96;61.61;99967.95;1726890;81;21554;-60
2021/10/18 06:01:56;;;;;;;14.38;7.20;;;;;;;6.03;61.89;99972.17;1737020;81;21525;-60
2021/10/18 06:04:23;;;;;;;11.22;6.80;;;;;;;6.02;61.92;99972.20;1743833;81;21696;-58
2021/10/18 06:06:50;;;;;;;14.53;6.97;;;;;;;6.06;61.70;99975.16;1741348;81;21072;-58
2021/10/18 06:09:16;;;;;;;13.83;6.83;;;;;;;6.11;61.82;99973.78;1727389;81;21621;-57
2021/10/18 06:11:45;;;;;;;14.50;6.80;;;;;;;6.15;61.42;99970.22;1733756;81;21608;-57
2021/10/18 06:14:12;;;;;;;13.27;6.47;;;;;;;6.19;61.43;99977.09;1721769;81;21528;-56
2021/10/18 06:16:40;;;;;;;16.35;6.42;;;;;;;6.22;61.57;99974.43;1731851;81;21857;-56
2021/10/18 06:19:07;;;;;;;8.95;6.67;;;;;;;6.26;61.69;99983.07;1732879;80;21597;-59
2021/10/18 06:21:34;;;;;;;12.37;7.45;;;;;;;6.27;61.57;99984.31;1733899;80;21450;-60
2021/10/18 06:24:00;;;;;;;14.20;7.20;;;;;;;6.28;61.47;99987.81;1743421;80;21465;-60
2021/10/18 06:26:27;;;;;;;11.35;6.58;;;;;;;6.29;61.59;99993.02;1740494;80;21599;-59
2021/10/18 06:28:54;;;;;;;11.50;7.33;;;;;;;6.30;61.46;99992.56;1731774;81;21793;-62
2021/10/18 06:31:20;;;;;;;12.50;6.92;;;;;;;6.30;61.40;99992.10;1739014;81;21408;-59
2021/10/18 06:33:47;;;;;;;15.08;6.83;;;;;;;6.33;61.75;99999.89;1735520;81;21605;-60
2021/10/18 06:36:14;;;;;;;9.58;6.40;;;;;;;6.34;61.64;99998.12;1731414;82;21496;-60
2021/10/18 06:38:41;;;;;;;13.38;7.28;;;;;;;6.36;61.57;99998.95;1741339;81;21475;-60
2021/10/18 06:41:07;;;;;;;17.07;8.15;;;;;;;6.35;61.66;99996.80;1729254;81;21752;-59
2021/10/18 06:43:35;;;;;;;13.85;7.37;;;;;;;6.36;61.67;100001.11;1744275;80;21502;-59
2021/10/18 06:46:02;;;;;;;14.20;6.92;;;;;;;6.41;61.68;100006.27;1748069;80;21514;-59
2021/10/18 06:48:29;;;;;;;10.48;7.28;;;;;;;6.41;61.57;99999.73;1700524;82;21610;-59
2021/10/18 06:50:55;;;;;;;12.00;7.33;;;;;;;6.47;61.85;100007.89;1734754;80;20942;-59
2021/10/18 06:53:34;;;;;;;13.25;7.58;;;;;;;6.49;61.98;100005.66;1740985;80;22183;-59
2021/10/18 06:56:06;;;;;;;13.83;6.95;;;;;;;6.51;61.60;100006.48;1735116;80;21577;-59
2021/10/18 06:58:30;;;;;;;15.40;7.75;;;;;;;6.55;61.61;100004.21;1737092;80;21601;-60
2021/10/18 07:00:57;;;;;;;14.68;7.97;;;;;;;6.62;61.46;100009.73;1739705;80;21539;-64
2021/10/18 07:03:24;;;;;;;12.10;7.28;;;;;;;6.69;61.46;100009.17;1724229;80;21536;-61
2021/10/18 07:05:52;;;;;;;9.58;7.00;;;;;;;6.72;61.47;100005.63;1725962;80;21779;-60
2021/10/18 07:08:18;;;;;;;11.25;7.78;;;;;;;6.76;61.37;100005.97;1745822;80;21517;-57
2021/10/18 07:10:45;;;;;;;14.05;7.62;;;;;;;6.76;61.18;100006.84;1740100;80;20969;-59
2021/10/18 07:13:12;;;;;;;10.55;7.37;;;;;;;6.83;61.12;100006.25;1733367;81;21602;-58
2021/10/18 07:15:41;;;;;;;15.18;8.68;;;;;;;6.88;61.19;100011.40;1745687;81;21566;-57
2021/10/18 07:18:08;;;;;;;11.53;7.60;;;;;;;6.91;61.15;100006.97;1723468;82;21864;-59
2021/10/18 07:20:36;;;;;;;14.63;7.85;;;;;;;6.94;61.26;100011.25;1735243;80;21540;-58
2021/10/18 07:23:07;;;;;;;13.40;7.73;;;;;;;6.90;60.94;100000.45;1743864;81;21518;-58
2021/10/18 07:25:31;;;;;;;14.10;7.92;;;;;;;6.89;61.11;99999.58;1743910;81;21374;-60
2021/10/18 07:27:59;;;;;;;11.38;7.72;;;;;;;6.88;61.10;100000.94;1736598;80;21496;-59
2021/10/18 07:30:26;;;;;;;15.67;7.63;;;;;;;6.90;61.23;100003.92;1733872;81;21728;-59
2021/10/18 07:32:52;;;;;;;14.50;7.72;;;;;;;6.91;61.44;100000.86;1748633;81;21573;-59
2021/10/18 07:35:20;;;;;;;15.90;8.08;;;;;;;6.95;61.40;100006.42;1741960;81;21538;-59
2021/10/18 07:37:54;;;;;;;;;;;;;;;7.01;61.61;100003.70;1748727;80;21458;-58
2021/10/18 07:40:23;;;;;;;13.43;7.75;;;;;;;7.05;61.34;100001.88;1743077;81;20249;-59
2021/10/18 07:42:50;;;;;;;24.55;9.60;;;;;;;7.11;61.46;100003.89;1726372;81;22344;-59
2021/10/18 07:45:17;;;;;;;15.50;9.83;;;;;;;7.15;61.12;100009.91;1737726;81;21454;-58
2021/10/18 07:47:43;;;;;;;15.50;9.20;;;;;;;7.21;60.97;100006.72;1739231;80;21480;-59
2021/10/18 07:50:10;;;;;;;14.60;8.90;;;;;;;7.31;61.07;100003.86;1731937;81;21427;-58
2021/10/18 07:52:40;;;;;;;12.47;9.28;;;;;;;7.35;60.60;100002.45;1739152;81;21562;-58
2021/10/18 07:55:13;;;;;;;16.12;8.78;;;;;;;7.44;60.43;100004.43;1731466;81;22033;-57
2021/10/18 07:57:41;;;;;;;13.90;8.15;;;;;;;7.47;60.40;100003.06;1737510;81;21620;-58
2021/10/18 08:00:09;;;;;;;11.78;7.60;;;;;;;7.49;60.38;99999.50;1742946;81;21470;-58
2021/10/18 08:02:36;;;;;;;13.78;7.92;;;;;;;7.55;60.08;99993.25;1739570;81;21554;-59
2021/10/18 08:05:04;;;;;;;11.83;7.55;;;;;;;7.65;60.08;100000.42;1737354;80;21029;-60
2021/10/18 08:07:36;;;;;;;;;;;;;;;7.71;59.60;99995.91;1735162;80;21803;-61
2021/10/18 08:09:59;;;;;;;15.95;8.40;;;;;;;7.67;59.59;99996.89;1740330;80;20464;-60
2021/10/18 08:12:26;;;;;;;11.47;7.37;;;;;;;7.62;59.56;99993.98;1731646;80;21629;-62
2021/10/18 08:14:53;;;;;;;15.50;9.80;;;;;;;7.72;59.38;99990.22;1735651;81;22060;-59
2021/10/18 08:17:20;;;;;;;9.18;7.70;;;;;;;7.80;59.26;99999.60;1735801;81;21511;-60
2021/10/18 08:19:47;;;;;;;12.13;7.80;;;;;;;7.86;59.05;99999.89;1728700;81;21838;-62
2021/10/18 08:22:14;;;;;;;15.85;8.78;;;;;;;7.91;59.03;99992.78;1725319;81;21605;-59
2021/10/18 08:24:40;;;;;;;11.60;8.55;;;;;;;7.98;59.10;99987.77;1733209;80;21518;-59
2021/10/18 08:27:07;;;;;;;15.13;8.68;;;;;;;8.06;58.83;99986.28;1733309;80;21491;-60
2021/10/18 08:29:35;;;;;;;13.53;9.33;;;;;;;8.05;58.38;99986.32;1725137;82;21459;-59
2021/10/18 08:32:04;;;;;;;18.60;9.65;;;;;;;8.12;58.79;99983.95;1729734;82;21644;-59
2021/10/18 08:34:31;;;;;;;17.07;9.25;;;;;;;8.19;58.32;99986.36;1729819;82;21593;-59
2021/10/18 08:36:58;;;;;;;15.10;9.10;;;;;;;8.24;58.28;99985.36;1728005;82;21466;-59
2021/10/18 08:42:15;;;;;;;16.05;9.40;;;;;;;8.42;58.55;99987.50;1726168;82;21439;-60
2021/10/18 08:44:39;;;;;;;15.25;9.45;;;;;;;8.53;58.09;99988.06;1706837;80;21839;-61
2021/10/18 08:47:06;;;;;;;12.68;8.38;;;;;;;8.60;57.69;99991.80;1733305;82;21498;-59
2021/10/18 08:49:33;;;;;;;15.90;8.58;;;;;;;8.65;57.44;99988.61;1729178;82;21459;-59
2021/10/18 08:51:59;;;;;;;9.83;7.80;;;;;;;8.69;57.20;99984.98;1730277;80;21553;-60
2021/10/18 08:54:26;;;;;;;15.15;8.60;;;;;;;8.73;57.18;99984.83;1688390;84;21619;-59
2021/10/18 08:56:54;;;;;;;13.18;9.20;;;;;;;8.79;57.25;99983.79;1663619;85;21571;-60
2021/10/18 08:59:21;;;;;;;;;;;;;;;8.82;56.66;99978.47;1732281;81;20999;-59
2021/10/18 09:01:50;;;;;;;19.75;8.63;;;;;;;8.85;56.66;99982.28;1733237;82;20155;-59
2021/10/18 09:04:30;;;;;;;13.83;9.10;;;;;;;8.89;56.83;99981.74;1730549;80;21046;-60
2021/10/18 09:07:01;;;;;;;16.20;9.50;;;;;;;8.92;56.39;99980.34;1734045;80;21505;-64
2021/10/18 09:09:32;;;;;;;15.45;9.08;;;;;;;8.96;56.48;99980.19;1725431;80;22023;-60
2021/10/18 09:12:00;;;;;;;11.73;8.55;;;;;;;9.02;56.51;99979.14;1726273;80;21586;-60
2021/10/18 09:14:29;;;;;;;12.47;8.80;;;;;;;9.05;56.10;99980.38;1742162;80;21030;-61
2021/10/18 09:17:00;;;;;;;16.17;8.90;;;;;;;9.07;56.19;99982.95;1748083;80;21482;-61
2021/10/18 09:19:27;;;;;;;12.58;8.88;;;;;;;9.10;56.02;99977.16;1736801;80;21526;-59
2021/10/18 09:21:56;;;;;;;13.95;8.78;;;;;;;9.15;55.90;99975.27;1737278;80;22009;-59
2021/10/18 09:24:37;;;;;;;11.70;8.08;;;;;;;9.25;56.26;99969.69;1739940;80;21504;-61
2021/10/18 09:27:09;;;;;;;14.35;9.83;;;;;;;9.27;55.93;99972.69;1745778;80;21451;-59
2021/10/18 09:29:45;;;;;;;16.65;9.75;;;;;;;9.43;55.79;99978.75;1736998;80;21001;-60
2021/10/18 09:32:19;;;;;;;14.47;9.73;;;;;;;9.54;55.38;99974.00;1737870;81;21398;-60
2021/10/18 09:34:46;;;;;;;13.72;9.30;;;;;;;9.62;55.37;99968.03;1734935;81;21556;-58
2021/10/18 09:37:14;;;;;;;16.15;9.60;;;;;;;9.69;54.68;99968.70;1741867;81;21583;-61
2021/10/18 09:39:46;;;;;;;16.85;9.08;;;;;;;9.77;54.85;99968.44;1743066;81;21439;-60
2021/10/18 09:42:17;;;;;;;14.80;8.88;;;;;;;9.82;54.35;99962.11;1735847;81;21513;-59
2021/10/18 09:45:07;;;;;;;15.85;9.30;;;;;;;9.83;54.15;99962.96;1731980;81;21502;-59
2021/10/18 10:54:12;;;;;;;13.80;7.35;;;;;;;11.04;50.53;99910.30;1704970;82;21912;-59
2021/10/18 10:56:46;;;;;;;10.32;6.35;;;;;;;10.99;50.55;99920.98;1710958;81;21538;-59
2021/10/18 10:59:28;;;;;;;13.15;7.12;;;;;;;10.89;50.05;99909.98;1699352;82;22122;-59
2021/10/18 11:02:11;;;;;;;10.25;6.95;;;;;;;10.85;49.97;99910.15;1699727;82;21487;-60
2021/10/18 11:04:42;;;;;;;12.93;6.50;;;;;;;10.85;50.37;99912.78;1706501;82;21664;-60
2021/10/18 11:07:23;;;;;;;10.03;6.45;;;;;;;10.82;49.61;99908.51;1703249;82;21614;-60
2021/10/18 11:09:56;;;;;;;9.70;6.17;;;;;;;10.77;49.48;99906.51;1643698;85;21426;-60
2021/10/18 11:12:35;;;;;;;12.18;5.85;;;;;;;10.83;49.94;99906.73;1706701;82;21531;-59
2021/10/18 11:15:14;;;;;;;13.50;6.75;;;;;;;10.79;50.11;99909.08;1735196;81;21022;-60
2021/10/18 11:17:53;;;;;;;10.75;6.55;;;;;;;10.77;49.86;99906.51;1745426;81;21529;-62
2021/10/18 11:20:23;;;;;;;16.50;6.83;;;;;;;10.66;49.67;99903.44;1743488;80;21503;-57
2021/10/18 11:22:57;;;;;;;10.13;5.87;;;;;;;10.60;50.16;99899.28;1731946;80;21714;-59
2021/10/18 11:25:33;;;;;;;10.82;6.15;;;;;;;10.55;50.25;99894.68;1744194;80;21757;-60
2021/10/18 11:28:04;;;;;;;15.80;6.95;;;;;;;10.70;50.20;99903.28;1750059;80;21541;-60
2021/10/18 11:30:33;;;;;;;9.35;6.12;;;;;;;10.75;49.92;99907.03;1733101;81;20994;-60
2021/10/18 11:33:10;;;;;;;12.23;6.08;;;;;;;10.77;49.99;99899.94;1738694;81;27084;-60
2021/10/18 11:35:37;;;;;;;;;;;;;;;10.77;50.20;99897.77;1746335;80;21633;-58
2021/10/18 11:38:09;;;;;;;11.63;7.22;;;;;;;10.74;49.92;99900.08;1749714;81;22109;-59
2021/10/18 11:40:48;;;;;;;14.50;7.17;;;;;;;10.73;50.25;99895.72;1736747;81;22016;-59
2021/10/18 11:43:25;;;;;;;10.25;5.95;;;;;;;10.80;50.27;99893.72;1736861;81;21537;-59
2021/10/18 11:45:54;;;;;;;9.98;5.45;;;;;;;10.78;49.68;99885.88;1741636;80;21569;-58
2021/10/18 11:48:25;;;;;;;8.23;5.87;;;;;;;10.78;49.68;99889.83;1741705;81;21455;-57
2021/10/18 11:50:54;;;;;;;9.48;6.12;;;;;;;10.73;49.65;99897.03;1745889;80;21882;-57
2021/10/18 11:53:22;;;;;;;8.50;5.58;;;;;;;10.73;49.88;99900.98;1746517;80;21463;-58
2021/10/18 11:55:56;;;;;;;11.18;5.58;;;;;;;10.77;49.52;99897.77;1736318;80;21544;-58
2021/10/18 11:58:25;;;;;;;9.35;5.37;;;;;;;10.76;49.66;99895.61;1745120;80;21444;-58
2021/10/18 12:01:02;;;;;;;9.03;5.58;;;;;;;10.80;49.43;99893.25;1745789;81;20998;-58
2021/10/18 12:03:30;;;;;;;7.95;4.95;;;;;;;10.77;48.87;99888.09;1742627;81;21821;-57
2021/10/18 12:05:59;;;;;;;8.43;5.45;;;;;;;10.78;48.72;99895.09;1744741;81;21595;-58
2021/10/18 12:08:32;;;;;;;7.22;4.87;;;;;;;10.79;48.84;99890.67;1745053;80;21080;-58
2021/10/18 12:11:04;;;;;;;11.33;5.40;;;;;;;10.77;48.60;99893.36;1737693;81;21539;-57
2021/10/18 12:13:36;;;;;;;8.10;5.28;;;;;;;10.75;48.39;99889.94;1740923;80;21526;-58
2021/10/18 12:16:13;;;;;;;8.88;5.78;;;;;;;10.76;48.92;99892.98;1720185;81;21566;-58
2021/10/18 12:20:01;;;;;;;7.50;5.45;;;;;;;10.83;48.17;99879.11;1775583;78;23108;-57
2021/10/18 12:22:28;;;;;;;12.90;5.87;;;;;;;10.80;48.90;99884.52;1738723;80;21645;-57
2021/10/18 12:25:01;;;;;;;12.30;6.47;;;;;;;10.83;49.11;99893.58;1716634;80;21433;-59
2021/10/18 12:27:28;;;;;;;8.43;5.92;;;;;;;10.89;49.36;99895.98;1739651;81;21424;-58
2021/10/18 12:29:55;;;;;;;10.60;6.60;;;;;;;10.84;48.91;99882.15;1740033;80;20998;-58
2021/10/18 12:32:21;;;;;;;10.95;6.97;;;;;;;10.80;49.27;99885.36;1738153;81;21538;-58
2021/10/18 12:34:48;;;;;;;10.05;6.55;;;;;;;10.78;49.16;99892.45;1732692;80;21633;-57
2021/10/18 12:37:15;;;;;;;11.18;6.47;;;;;;;10.69;49.56;99887.55;1704207;82;21832;-57
2021/10/18 12:39:58;;;;;;;8.63;6.10;;;;;;;10.72;50.18;99886.13;1674375;84;21587;-58
2021/10/18 12:42:33;;;;;;;10.58;6.33;;;;;;;10.73;49.83;99885.20;1692261;81;21516;-57
2021/10/18 12:45:13;;;;;;;11.25;7.00;;;;;;;10.72;49.70;99892.70;1691919;82;21101;-57
2021/10/18 12:47:44;;;;;;;11.70;6.35;;;;;;;10.67;49.95;99894.66;1699055;83;21543;-57
2021/10/18 12:50:18;;;;;;;8.80;5.90;;;;;;;10.65;49.89;99891.23;1696059;82;22215;-57
2021/10/18 12:52:57;;;;;;;10.28;5.92;;;;;;;10.68;49.71;99889.77;1698780;82;21059;-57